Terminal Aerodrome Forecast
Issued by NWS

Home | Current Version | Previous Version | Text Only | Print | Product List | Glossary On
Versions: 1 2 3 4 5 6 7 8 9 10 11 12 13 14 15 16 17
044
FTUS46 KSGX 251129
TAFCRQ
TAF
KCRQ 251129Z 2512/2612 VRB05KT P6SM FEW012 BKN180
      TEMPO 2514/2517 BKN012
     FM251900 26011KT P6SM VCSH SCT015 BKN027 BKN180
     FM260200 27006KT P6SM BKN015=

USA.gov is the U.S. government's official web portal to all federal, state and local government web resources and services.